sensor_id;sensor_type;location;lat;lon;timestamp;P1;durP1;ratioP1;P2;durP2;ratioP2
44197;SDS011;30157;55.512;37.764;2023-09-19T00:01:40;14.82;;;10.00;;
44197;SDS011;30157;55.512;37.764;2023-09-19T00:04:07;15.38;;;9.60;;
44197;SDS011;30157;55.512;37.764;2023-09-19T00:06:36;14.07;;;9.00;;
44197;SDS011;30157;55.512;37.764;2023-09-19T00:09:03;16.80;;;9.82;;
44197;SDS011;30157;55.512;37.764;2023-09-19T00:11:29;15.63;;;9.63;;
44197;SDS011;30157;55.512;37.764;2023-09-19T00:13:56;13.80;;;9.60;;
44197;SDS011;30157;55.512;37.764;2023-09-19T00:16:24;15.35;;;9.32;;
44197;SDS011;30157;55.512;37.764;2023-09-19T00:18:51;15.25;;;9.68;;
44197;SDS011;30157;55.512;37.764;2023-09-19T00:21:18;17.77;;;10.80;;
44197;SDS011;30157;55.512;37.764;2023-09-19T00:23:47;19.67;;;9.82;;
44197;SDS011;30157;55.512;37.764;2023-09-19T00:26:13;15.23;;;9.05;;
44197;SDS011;30157;55.512;37.764;2023-09-19T00:28:41;16.67;;;9.25;;
44197;SDS011;30157;55.512;37.764;2023-09-19T00:31:09;16.88;;;9.98;;
44197;SDS011;30157;55.512;37.764;2023-09-19T00:33:35;18.88;;;11.70;;
44197;SDS011;30157;55.512;37.764;2023-09-19T00:36:01;16.25;;;10.63;;
44197;SDS011;30157;55.512;37.764;2023-09-19T00:38:31;15.82;;;10.25;;
44197;SDS011;30157;55.512;37.764;2023-09-19T00:40:57;16.55;;;10.05;;
44197;SDS011;30157;55.512;37.764;2023-09-19T00:43:25;17.00;;;10.52;;
44197;SDS011;30157;55.512;37.764;2023-09-19T00:45:53;14.60;;;9.82;;
44197;SDS011;30157;55.512;37.764;2023-09-19T00:48:21;17.83;;;9.80;;
44197;SDS011;30157;55.512;37.764;2023-09-19T00:50:48;14.77;;;9.55;;
44197;SDS011;30157;55.512;37.764;2023-09-19T00:53:19;14.98;;;9.80;;
44197;SDS011;30157;55.512;37.764;2023-09-19T00:55:48;15.45;;;9.50;;
44197;SDS011;30157;55.512;37.764;2023-09-19T00:58:19;15.75;;;9.57;;
44197;SDS011;30157;55.512;37.764;2023-09-19T01:00:46;16.45;;;9.35;;
44197;SDS011;30157;55.512;37.764;2023-09-19T01:03:13;14.10;;;9.27;;
44197;SDS011;30157;55.512;37.764;2023-09-19T01:05:40;14.75;;;8.90;;
44197;SDS011;30157;55.512;37.764;2023-09-19T01:08:08;14.40;;;9.50;;
44197;SDS011;30157;55.512;37.764;2023-09-19T01:10:33;14.48;;;9.63;;
44197;SDS011;30157;55.512;37.764;2023-09-19T01:24:04;21.30;;;12.38;;
44197;SDS011;30157;55.512;37.764;2023-09-19T01:31:57;15.73;;;9.77;;
44197;SDS011;30157;55.512;37.764;2023-09-19T01:37:14;24.23;;;15.05;;
44197;SDS011;30157;55.512;37.764;2023-09-19T01:40:04;18.10;;;11.27;;
44197;SDS011;30157;55.512;37.764;2023-09-19T01:43:05;19.63;;;11.88;;
44197;SDS011;30157;55.512;37.764;2023-09-19T01:48:31;22.17;;;12.57;;
44197;SDS011;30157;55.512;37.764;2023-09-19T01:51:13;27.58;;;13.30;;
44197;SDS011;30157;55.512;37.764;2023-09-19T01:53:56;24.58;;;12.63;;
44197;SDS011;30157;55.512;37.764;2023-09-19T01:56:40;20.30;;;12.02;;
44197;SDS011;30157;55.512;37.764;2023-09-19T01:59:31;21.10;;;11.68;;
44197;SDS011;30157;55.512;37.764;2023-09-19T02:02:03;23.67;;;12.65;;
44197;SDS011;30157;55.512;37.764;2023-09-19T02:04:34;21.33;;;12.02;;
44197;SDS011;30157;55.512;37.764;2023-09-19T02:07:00;22.45;;;11.85;;
44197;SDS011;30157;55.512;37.764;2023-09-19T02:09:28;21.83;;;11.75;;
44197;SDS011;30157;55.512;37.764;2023-09-19T02:11:53;19.60;;;10.88;;
44197;SDS011;30157;55.512;37.764;2023-09-19T02:14:21;19.92;;;11.25;;
44197;SDS011;30157;55.512;37.764;2023-09-19T02:16:48;21.77;;;11.50;;
44197;SDS011;30157;55.512;37.764;2023-09-19T02:19:15;21.63;;;11.00;;
44197;SDS011;30157;55.512;37.764;2023-09-19T02:21:41;20.35;;;10.73;;
44197;SDS011;30157;55.512;37.764;2023-09-19T02:24:08;22.70;;;11.93;;
44197;SDS011;30157;55.512;37.764;2023-09-19T02:26:34;19.02;;;10.48;;
44197;SDS011;30157;55.512;37.764;2023-09-19T02:29:01;21.08;;;10.45;;
44197;SDS011;30157;55.512;37.764;2023-09-19T02:31:30;17.52;;;9.90;;
44197;SDS011;30157;55.512;37.764;2023-09-19T02:33:56;18.33;;;10.00;;
44197;SDS011;30157;55.512;37.764;2023-09-19T02:36:22;28.25;;;11.07;;
44197;SDS011;30157;55.512;37.764;2023-09-19T02:38:49;17.48;;;10.25;;
44197;SDS011;30157;55.512;37.764;2023-09-19T02:41:15;18.58;;;10.13;;
44197;SDS011;30157;55.512;37.764;2023-09-19T02:43:41;17.45;;;9.90;;
44197;SDS011;30157;55.512;37.764;2023-09-19T02:46:08;20.02;;;10.13;;
44197;SDS011;30157;55.512;37.764;2023-09-19T02:48:34;20.13;;;10.07;;
44197;SDS011;30157;55.512;37.764;2023-09-19T02:51:01;18.33;;;10.57;;
44197;SDS011;30157;55.512;37.764;2023-09-19T02:53:28;18.35;;;10.82;;
44197;SDS011;30157;55.512;37.764;2023-09-19T02:55:56;18.27;;;9.68;;
44197;SDS011;30157;55.512;37.764;2023-09-19T02:58:22;19.80;;;11.18;;
44197;SDS011;30157;55.512;37.764;2023-09-19T03:00:49;18.15;;;9.90;;
44197;SDS011;30157;55.512;37.764;2023-09-19T03:03:16;21.92;;;10.85;;
44197;SDS011;30157;55.512;37.764;2023-09-19T03:05:42;20.10;;;11.23;;
44197;SDS011;30157;55.512;37.764;2023-09-19T03:08:14;19.67;;;11.05;;
44197;SDS011;30157;55.512;37.764;2023-09-19T03:10:45;20.58;;;11.15;;
44197;SDS011;30157;55.512;37.764;2023-09-19T03:13:12;21.23;;;12.40;;
44197;SDS011;30157;55.512;37.764;2023-09-19T03:15:40;21.50;;;12.48;;
44197;SDS011;30157;55.512;37.764;2023-09-19T03:18:09;20.02;;;11.90;;
44197;SDS011;30157;55.512;37.764;2023-09-19T03:20:35;21.55;;;11.65;;
44197;SDS011;30157;55.512;37.764;2023-09-19T03:23:01;17.48;;;9.98;;
44197;SDS011;30157;55.512;37.764;2023-09-19T03:25:28;21.85;;;11.95;;
44197;SDS011;30157;55.512;37.764;2023-09-19T03:27:55;19.27;;;11.70;;
44197;SDS011;30157;55.512;37.764;2023-09-19T03:30:24;20.35;;;11.05;;
44197;SDS011;30157;55.512;37.764;2023-09-19T03:32:50;19.83;;;11.18;;
44197;SDS011;30157;55.512;37.764;2023-09-19T03:35:17;18.02;;;11.05;;
44197;SDS011;30157;55.512;37.764;2023-09-19T03:37:45;17.33;;;10.38;;
44197;SDS011;30157;55.512;37.764;2023-09-19T03:40:11;18.85;;;11.10;;
44197;SDS011;30157;55.512;37.764;2023-09-19T03:42:38;20.80;;;12.80;;
44197;SDS011;30157;55.512;37.764;2023-09-19T03:45:10;18.25;;;11.63;;
44197;SDS011;30157;55.512;37.764;2023-09-19T03:47:48;18.98;;;10.93;;
44197;SDS011;30157;55.512;37.764;2023-09-19T03:50:16;20.17;;;11.38;;
44197;SDS011;30157;55.512;37.764;2023-09-19T03:52:43;18.30;;;11.10;;
44197;SDS011;30157;55.512;37.764;2023-09-19T03:55:09;20.75;;;11.98;;
44197;SDS011;30157;55.512;37.764;2023-09-19T03:57:37;17.95;;;10.85;;
44197;SDS011;30157;55.512;37.764;2023-09-19T04:00:04;17.20;;;11.25;;
44197;SDS011;30157;55.512;37.764;2023-09-19T04:05:05;21.38;;;12.48;;
44197;SDS011;30157;55.512;37.764;2023-09-19T04:07:31;23.75;;;13.80;;
44197;SDS011;30157;55.512;37.764;2023-09-19T04:09:56;19.55;;;12.27;;
44197;SDS011;30157;55.512;37.764;2023-09-19T04:12:22;21.50;;;12.32;;
44197;SDS011;30157;55.512;37.764;2023-09-19T04:14:48;22.48;;;12.55;;
44197;SDS011;30157;55.512;37.764;2023-09-19T04:17:15;20.40;;;12.85;;
44197;SDS011;30157;55.512;37.764;2023-09-19T04:19:41;20.25;;;11.77;;
44197;SDS011;30157;55.512;37.764;2023-09-19T04:22:07;20.42;;;12.73;;
44197;SDS011;30157;55.512;37.764;2023-09-19T04:24:34;21.20;;;12.98;;
44197;SDS011;30157;55.512;37.764;2023-09-19T04:27:00;24.45;;;14.38;;
44197;SDS011;30157;55.512;37.764;2023-09-19T04:29:27;22.33;;;12.93;;
44197;SDS011;30157;55.512;37.764;2023-09-19T04:31:55;21.92;;;12.70;;
44197;SDS011;30157;55.512;37.764;2023-09-19T04:34:22;21.40;;;12.50;;
44197;SDS011;30157;55.512;37.764;2023-09-19T04:36:50;23.83;;;14.07;;
44197;SDS011;30157;55.512;37.764;2023-09-19T04:39:15;22.70;;;12.80;;
44197;SDS011;30157;55.512;37.764;2023-09-19T04:41:42;21.25;;;12.25;;
44197;SDS011;30157;55.512;37.764;2023-09-19T04:44:11;22.75;;;13.05;;
44197;SDS011;30157;55.512;37.764;2023-09-19T04:46:38;21.55;;;12.80;;
44197;SDS011;30157;55.512;37.764;2023-09-19T04:49:03;25.33;;;14.13;;
44197;SDS011;30157;55.512;37.764;2023-09-19T04:51:29;22.77;;;13.80;;
44197;SDS011;30157;55.512;37.764;2023-09-19T04:54:00;22.77;;;13.20;;
44197;SDS011;30157;55.512;37.764;2023-09-19T04:56:26;21.70;;;13.40;;
44197;SDS011;30157;55.512;37.764;2023-09-19T04:58:54;19.00;;;11.82;;
44197;SDS011;30157;55.512;37.764;2023-09-19T05:01:20;23.48;;;13.05;;
44197;SDS011;30157;55.512;37.764;2023-09-19T05:03:48;21.23;;;13.40;;
44197;SDS011;30157;55.512;37.764;2023-09-19T05:06:19;19.88;;;12.65;;
44197;SDS011;30157;55.512;37.764;2023-09-19T05:08:48;22.38;;;13.45;;
44197;SDS011;30157;55.512;37.764;2023-09-19T05:11:19;27.13;;;13.35;;
44197;SDS011;30157;55.512;37.764;2023-09-19T05:13:47;20.35;;;11.65;;
44197;SDS011;30157;55.512;37.764;2023-09-19T05:16:16;20.45;;;12.60;;
44197;SDS011;30157;55.512;37.764;2023-09-19T05:18:42;18.80;;;11.57;;
44197;SDS011;30157;55.512;37.764;2023-09-19T05:21:08;20.58;;;11.77;;
44197;SDS011;30157;55.512;37.764;2023-09-19T05:23:34;20.48;;;12.40;;
44197;SDS011;30157;55.512;37.764;2023-09-19T05:26:01;20.13;;;12.75;;
44197;SDS011;30157;55.512;37.764;2023-09-19T05:28:27;21.40;;;13.38;;
44197;SDS011;30157;55.512;37.764;2023-09-19T05:30:53;20.08;;;12.45;;
44197;SDS011;30157;55.512;37.764;2023-09-19T05:33:19;19.70;;;13.05;;
44197;SDS011;30157;55.512;37.764;2023-09-19T05:35:47;17.95;;;11.95;;
44197;SDS011;30157;55.512;37.764;2023-09-19T05:38:13;21.10;;;12.95;;
44197;SDS011;30157;55.512;37.764;2023-09-19T05:40:45;17.90;;;11.75;;
44197;SDS011;30157;55.512;37.764;2023-09-19T05:43:11;20.52;;;12.70;;
44197;SDS011;30157;55.512;37.764;2023-09-19T05:45:37;19.23;;;12.55;;
44197;SDS011;30157;55.512;37.764;2023-09-19T05:50:37;19.30;;;11.27;;
44197;SDS011;30157;55.512;37.764;2023-09-19T05:53:04;19.38;;;12.35;;
44197;SDS011;30157;55.512;37.764;2023-09-19T05:55:30;17.70;;;12.77;;
44197;SDS011;30157;55.512;37.764;2023-09-19T05:57:57;17.30;;;11.38;;
44197;SDS011;30157;55.512;37.764;2023-09-19T06:00:23;15.32;;;10.98;;
44197;SDS011;30157;55.512;37.764;2023-09-19T06:02:53;15.90;;;11.25;;
44197;SDS011;30157;55.512;37.764;2023-09-19T06:05:19;18.60;;;12.32;;
44197;SDS011;30157;55.512;37.764;2023-09-19T06:07:46;14.82;;;10.65;;
44197;SDS011;30157;55.512;37.764;2023-09-19T06:10:13;14.68;;;10.48;;
44197;SDS011;30157;55.512;37.764;2023-09-19T06:12:43;12.65;;;10.27;;
44197;SDS011;30157;55.512;37.764;2023-09-19T06:15:11;14.35;;;10.18;;
44197;SDS011;30157;55.512;37.764;2023-09-19T06:17:53;13.77;;;9.60;;
44197;SDS011;30157;55.512;37.764;2023-09-19T06:20:24;12.10;;;8.77;;
44197;SDS011;30157;55.512;37.764;2023-09-19T06:22:52;14.57;;;10.20;;
44197;SDS011;30157;55.512;37.764;2023-09-19T06:25:18;11.57;;;9.32;;
44197;SDS011;30157;55.512;37.764;2023-09-19T06:27:46;13.35;;;9.70;;
44197;SDS011;30157;55.512;37.764;2023-09-19T06:30:12;10.70;;;8.45;;
44197;SDS011;30157;55.512;37.764;2023-09-19T06:32:43;12.00;;;9.65;;
44197;SDS011;30157;55.512;37.764;2023-09-19T06:35:12;11.90;;;9.45;;
44197;SDS011;30157;55.512;37.764;2023-09-19T06:37:39;13.70;;;10.05;;
44197;SDS011;30157;55.512;37.764;2023-09-19T06:42:34;14.98;;;9.30;;
44197;SDS011;30157;55.512;37.764;2023-09-19T06:45:03;11.35;;;8.93;;
44197;SDS011;30157;55.512;37.764;2023-09-19T06:47:31;11.95;;;9.27;;
44197;SDS011;30157;55.512;37.764;2023-09-19T06:49:57;12.85;;;8.88;;
44197;SDS011;30157;55.512;37.764;2023-09-19T06:52:22;10.65;;;8.25;;
44197;SDS011;30157;55.512;37.764;2023-09-19T06:54:48;13.00;;;10.85;;
44197;SDS011;30157;55.512;37.764;2023-09-19T06:57:16;13.40;;;9.23;;
44197;SDS011;30157;55.512;37.764;2023-09-19T06:59:41;11.07;;;9.38;;
44197;SDS011;30157;55.512;37.764;2023-09-19T07:02:07;13.43;;;10.57;;
44197;SDS011;30157;55.512;37.764;2023-09-19T07:04:33;14.27;;;10.73;;
44197;SDS011;30157;55.512;37.764;2023-09-19T07:06:59;13.60;;;10.70;;
44197;SDS011;30157;55.512;37.764;2023-09-19T07:09:25;14.88;;;11.05;;
44197;SDS011;30157;55.512;37.764;2023-09-19T07:11:54;14.00;;;11.00;;
44197;SDS011;30157;55.512;37.764;2023-09-19T07:14:20;15.77;;;11.52;;
44197;SDS011;30157;55.512;37.764;2023-09-19T07:16:46;14.75;;;11.07;;
44197;SDS011;30157;55.512;37.764;2023-09-19T07:19:13;14.95;;;12.18;;
44197;SDS011;30157;55.512;37.764;2023-09-19T07:21:40;18.20;;;12.88;;
44197;SDS011;30157;55.512;37.764;2023-09-19T07:24:08;17.70;;;12.07;;
44197;SDS011;30157;55.512;37.764;2023-09-19T07:26:34;19.65;;;12.90;;
44197;SDS011;30157;55.512;37.764;2023-09-19T07:29:03;15.02;;;11.32;;
44197;SDS011;30157;55.512;37.764;2023-09-19T07:31:30;17.02;;;12.80;;
44197;SDS011;30157;55.512;37.764;2023-09-19T07:33:57;17.45;;;12.88;;
44197;SDS011;30157;55.512;37.764;2023-09-19T07:36:23;19.70;;;14.55;;
44197;SDS011;30157;55.512;37.764;2023-09-19T07:38:50;18.27;;;13.48;;
44197;SDS011;30157;55.512;37.764;2023-09-19T07:41:16;20.73;;;14.23;;
44197;SDS011;30157;55.512;37.764;2023-09-19T07:43:43;19.23;;;12.40;;
44197;SDS011;30157;55.512;37.764;2023-09-19T07:46:09;16.55;;;12.45;;
44197;SDS011;30157;55.512;37.764;2023-09-19T07:48:37;18.70;;;12.35;;
44197;SDS011;30157;55.512;37.764;2023-09-19T07:51:05;15.88;;;11.65;;
44197;SDS011;30157;55.512;37.764;2023-09-19T07:53:32;18.20;;;12.50;;
44197;SDS011;30157;55.512;37.764;2023-09-19T07:56:06;16.90;;;12.50;;
44197;SDS011;30157;55.512;37.764;2023-09-19T07:58:33;17.95;;;11.80;;
44197;SDS011;30157;55.512;37.764;2023-09-19T08:01:06;16.20;;;11.48;;
44197;SDS011;30157;55.512;37.764;2023-09-19T08:03:33;17.27;;;12.93;;
44197;SDS011;30157;55.512;37.764;2023-09-19T08:06:00;16.38;;;11.80;;
44197;SDS011;30157;55.512;37.764;2023-09-19T08:08:27;18.88;;;12.52;;
44197;SDS011;30157;55.512;37.764;2023-09-19T08:10:53;18.95;;;12.43;;
44197;SDS011;30157;55.512;37.764;2023-09-19T08:13:22;19.70;;;11.57;;
44197;SDS011;30157;55.512;37.764;2023-09-19T08:15:49;15.18;;;12.05;;
44197;SDS011;30157;55.512;37.764;2023-09-19T08:18:16;18.60;;;12.80;;
44197;SDS011;30157;55.512;37.764;2023-09-19T08:20:43;18.25;;;13.57;;
44197;SDS011;30157;55.512;37.764;2023-09-19T08:23:11;16.77;;;11.30;;
44197;SDS011;30157;55.512;37.764;2023-09-19T08:25:37;22.13;;;12.98;;
44197;SDS011;30157;55.512;37.764;2023-09-19T08:28:04;17.58;;;12.30;;
44197;SDS011;30157;55.512;37.764;2023-09-19T08:30:33;16.25;;;12.38;;
44197;SDS011;30157;55.512;37.764;2023-09-19T08:33:00;16.98;;;12.10;;
44197;SDS011;30157;55.512;37.764;2023-09-19T08:35:26;17.75;;;12.55;;
44197;SDS011;30157;55.512;37.764;2023-09-19T08:37:53;14.07;;;10.00;;
44197;SDS011;30157;55.512;37.764;2023-09-19T08:40:21;14.00;;;11.18;;
44197;SDS011;30157;55.512;37.764;2023-09-19T08:42:51;16.10;;;11.52;;
44197;SDS011;30157;55.512;37.764;2023-09-19T08:45:21;14.93;;;11.90;;
44197;SDS011;30157;55.512;37.764;2023-09-19T08:47:56;15.15;;;11.45;;
44197;SDS011;30157;55.512;37.764;2023-09-19T08:50:31;12.13;;;9.60;;
44197;SDS011;30157;55.512;37.764;2023-09-19T08:53:01;12.27;;;10.00;;
44197;SDS011;30157;55.512;37.764;2023-09-19T08:55:36;12.23;;;9.23;;
44197;SDS011;30157;55.512;37.764;2023-09-19T08:58:06;11.65;;;9.05;;
44197;SDS011;30157;55.512;37.764;2023-09-19T09:00:36;12.50;;;8.85;;
44197;SDS011;30157;55.512;37.764;2023-09-19T09:03:08;12.90;;;9.73;;
44197;SDS011;30157;55.512;37.764;2023-09-19T09:05:36;14.75;;;10.38;;
44197;SDS011;30157;55.512;37.764;2023-09-19T09:08:06;10.93;;;9.05;;
44197;SDS011;30157;55.512;37.764;2023-09-19T09:10:32;12.05;;;9.50;;
44197;SDS011;30157;55.512;37.764;2023-09-19T09:12:59;17.50;;;9.85;;
44197;SDS011;30157;55.512;37.764;2023-09-19T09:15:25;13.40;;;9.05;;
44197;SDS011;30157;55.512;37.764;2023-09-19T09:17:51;12.65;;;9.32;;
44197;SDS011;30157;55.512;37.764;2023-09-19T09:20:22;16.33;;;9.07;;
44197;SDS011;30157;55.512;37.764;2023-09-19T09:22:51;10.93;;;8.25;;
44197;SDS011;30157;55.512;37.764;2023-09-19T09:28:18;10.10;;;8.10;;
44197;SDS011;30157;55.512;37.764;2023-09-19T09:30:46;19.05;;;10.38;;
44197;SDS011;30157;55.512;37.764;2023-09-19T09:33:12;11.93;;;8.65;;
44197;SDS011;30157;55.512;37.764;2023-09-19T09:35:50;11.02;;;8.35;;
44197;SDS011;30157;55.512;37.764;2023-09-19T09:38:23;12.93;;;8.95;;
44197;SDS011;30157;55.512;37.764;2023-09-19T09:40:58;12.68;;;9.32;;
44197;SDS011;30157;55.512;37.764;2023-09-19T09:43:45;14.23;;;9.80;;
44197;SDS011;30157;55.512;37.764;2023-09-19T09:46:16;16.23;;;11.52;;
44197;SDS011;30157;55.512;37.764;2023-09-19T09:51:44;13.13;;;9.25;;
44197;SDS011;30157;55.512;37.764;2023-09-19T09:54:25;16.73;;;10.13;;
44197;SDS011;30157;55.512;37.764;2023-09-19T09:57:09;16.25;;;10.50;;
44197;SDS011;30157;55.512;37.764;2023-09-19T09:59:50;18.85;;;11.75;;
44197;SDS011;30157;55.512;37.764;2023-09-19T10:02:27;17.20;;;11.05;;
44197;SDS011;30157;55.512;37.764;2023-09-19T10:05:18;17.70;;;10.07;;
44197;SDS011;30157;55.512;37.764;2023-09-19T10:07:46;13.93;;;9.85;;
44197;SDS011;30157;55.512;37.764;2023-09-19T10:10:30;12.75;;;9.13;;
44197;SDS011;30157;55.512;37.764;2023-09-19T10:13:23;12.55;;;9.55;;
44197;SDS011;30157;55.512;37.764;2023-09-19T10:15:52;12.30;;;9.40;;
44197;SDS011;30157;55.512;37.764;2023-09-19T10:18:21;12.95;;;9.20;;
44197;SDS011;30157;55.512;37.764;2023-09-19T10:20:48;12.63;;;9.02;;
44197;SDS011;30157;55.512;37.764;2023-09-19T10:23:17;17.50;;;10.57;;
44197;SDS011;30157;55.512;37.764;2023-09-19T10:25:51;12.32;;;8.20;;
44197;SDS011;30157;55.512;37.764;2023-09-19T10:28:18;11.15;;;8.27;;
44197;SDS011;30157;55.512;37.764;2023-09-19T10:30:48;11.15;;;8.27;;
44197;SDS011;30157;55.512;37.764;2023-09-19T10:33:16;15.60;;;9.38;;
44197;SDS011;30157;55.512;37.764;2023-09-19T10:35:47;13.68;;;9.40;;
44197;SDS011;30157;55.512;37.764;2023-09-19T10:38:26;9.25;;;7.43;;
44197;SDS011;30157;55.512;37.764;2023-09-19T10:40:54;11.70;;;9.35;;
44197;SDS011;30157;55.512;37.764;2023-09-19T10:43:29;11.75;;;8.90;;
44197;SDS011;30157;55.512;37.764;2023-09-19T10:45:57;11.63;;;8.73;;
44197;SDS011;30157;55.512;37.764;2023-09-19T10:48:29;14.25;;;10.00;;
44197;SDS011;30157;55.512;37.764;2023-09-19T10:51:31;12.20;;;8.60;;
44197;SDS011;30157;55.512;37.764;2023-09-19T10:53:54;14.85;;;9.20;;
44197;SDS011;30157;55.512;37.764;2023-09-19T10:56:35;12.15;;;8.50;;
44197;SDS011;30157;55.512;37.764;2023-09-19T10:59:09;11.90;;;8.98;;
44197;SDS011;30157;55.512;37.764;2023-09-19T11:01:55;14.63;;;9.10;;
44197;SDS011;30157;55.512;37.764;2023-09-19T11:04:32;12.20;;;9.18;;
44197;SDS011;30157;55.512;37.764;2023-09-19T11:12:47;13.73;;;8.48;;
44197;SDS011;30157;55.512;37.764;2023-09-19T11:15:11;11.35;;;7.65;;
44197;SDS011;30157;55.512;37.764;2023-09-19T11:26:50;10.40;;;7.28;;
44197;SDS011;30157;55.512;37.764;2023-09-19T11:29:27;12.85;;;8.93;;
44197;SDS011;30157;55.512;37.764;2023-09-19T11:31:54;11.60;;;8.00;;
44197;SDS011;30157;55.512;37.764;2023-09-19T11:37:03;13.75;;;8.77;;
44197;SDS011;30157;55.512;37.764;2023-09-19T11:42:45;9.77;;;7.82;;
44197;SDS011;30157;55.512;37.764;2023-09-19T11:48:18;9.35;;;6.88;;
44197;SDS011;30157;55.512;37.764;2023-09-19T11:50:45;8.50;;;6.97;;
44197;SDS011;30157;55.512;37.764;2023-09-19T11:53:13;8.70;;;6.90;;
44197;SDS011;30157;55.512;37.764;2023-09-19T11:55:42;10.95;;;7.13;;
44197;SDS011;30157;55.512;37.764;2023-09-19T11:58:20;8.57;;;7.07;;
44197;SDS011;30157;55.512;37.764;2023-09-19T12:00:47;9.55;;;6.55;;
44197;SDS011;30157;55.512;37.764;2023-09-19T12:03:21;9.13;;;6.72;;
44197;SDS011;30157;55.512;37.764;2023-09-19T12:05:48;7.90;;;6.15;;
44197;SDS011;30157;55.512;37.764;2023-09-19T12:08:14;10.82;;;6.85;;
44197;SDS011;30157;55.512;37.764;2023-09-19T12:10:45;10.18;;;7.13;;
44197;SDS011;30157;55.512;37.764;2023-09-19T12:13:19;10.55;;;7.15;;
44197;SDS011;30157;55.512;37.764;2023-09-19T12:15:46;11.57;;;7.35;;
44197;SDS011;30157;55.512;37.764;2023-09-19T12:18:28;8.57;;;6.30;;
44197;SDS011;30157;55.512;37.764;2023-09-19T12:20:55;10.07;;;6.93;;
44197;SDS011;30157;55.512;37.764;2023-09-19T12:23:23;8.65;;;6.70;;
44197;SDS011;30157;55.512;37.764;2023-09-19T12:25:51;10.20;;;7.00;;
44197;SDS011;30157;55.512;37.764;2023-09-19T12:28:23;9.60;;;6.80;;
44197;SDS011;30157;55.512;37.764;2023-09-19T12:30:52;9.57;;;7.25;;
44197;SDS011;30157;55.512;37.764;2023-09-19T12:33:21;9.60;;;7.03;;
44197;SDS011;30157;55.512;37.764;2023-09-19T12:35:52;8.02;;;6.90;;
44197;SDS011;30157;55.512;37.764;2023-09-19T12:38:25;8.73;;;7.03;;
44197;SDS011;30157;55.512;37.764;2023-09-19T12:40:56;10.65;;;7.20;;
44197;SDS011;30157;55.512;37.764;2023-09-19T12:43:26;8.52;;;6.60;;
44197;SDS011;30157;55.512;37.764;2023-09-19T12:45:53;9.02;;;7.25;;
44197;SDS011;30157;55.512;37.764;2023-09-19T12:53:40;10.20;;;8.10;;
44197;SDS011;30157;55.512;37.764;2023-09-19T12:56:09;10.70;;;7.93;;
44197;SDS011;30157;55.512;37.764;2023-09-19T13:01:22;8.73;;;7.00;;
44197;SDS011;30157;55.512;37.764;2023-09-19T13:06:48;8.57;;;7.28;;
44197;SDS011;30157;55.512;37.764;2023-09-19T13:09:15;7.60;;;6.72;;
44197;SDS011;30157;55.512;37.764;2023-09-19T13:11:42;9.25;;;7.05;;
44197;SDS011;30157;55.512;37.764;2023-09-19T13:19:48;10.38;;;7.60;;
44197;SDS011;30157;55.512;37.764;2023-09-19T13:25:12;10.73;;;7.50;;
44197;SDS011;30157;55.512;37.764;2023-09-19T13:27:53;10.73;;;7.53;;
44197;SDS011;30157;55.512;37.764;2023-09-19T13:30:25;10.38;;;7.38;;
44197;SDS011;30157;55.512;37.764;2023-09-19T13:32:52;10.27;;;8.15;;
44197;SDS011;30157;55.512;37.764;2023-09-19T13:35:29;10.90;;;7.95;;
44197;SDS011;30157;55.512;37.764;2023-09-19T13:37:55;10.60;;;7.45;;
44197;SDS011;30157;55.512;37.764;2023-09-19T13:40:20;8.98;;;7.97;;
44197;SDS011;30157;55.512;37.764;2023-09-19T13:42:46;12.50;;;8.68;;
44197;SDS011;30157;55.512;37.764;2023-09-19T13:45:12;12.00;;;8.60;;
44197;SDS011;30157;55.512;37.764;2023-09-19T13:47:41;12.88;;;8.75;;
44197;SDS011;30157;55.512;37.764;2023-09-19T13:50:07;13.10;;;9.60;;
44197;SDS011;30157;55.512;37.764;2023-09-19T13:52:34;10.05;;;7.63;;
44197;SDS011;30157;55.512;37.764;2023-09-19T13:54:59;12.48;;;8.38;;
44197;SDS011;30157;55.512;37.764;2023-09-19T13:57:25;13.77;;;9.45;;
44197;SDS011;30157;55.512;37.764;2023-09-19T13:59:52;14.88;;;10.57;;
44197;SDS011;30157;55.512;37.764;2023-09-19T14:02:22;12.85;;;9.63;;
44197;SDS011;30157;55.512;37.764;2023-09-19T14:04:49;14.02;;;9.90;;
44197;SDS011;30157;55.512;37.764;2023-09-19T14:07:15;11.45;;;9.07;;
44197;SDS011;30157;55.512;37.764;2023-09-19T14:09:43;11.60;;;8.50;;
44197;SDS011;30157;55.512;37.764;2023-09-19T14:12:09;14.85;;;8.77;;
44197;SDS011;30157;55.512;37.764;2023-09-19T14:14:34;13.93;;;10.10;;
44197;SDS011;30157;55.512;37.764;2023-09-19T14:17:00;12.57;;;9.10;;
44197;SDS011;30157;55.512;37.764;2023-09-19T14:19:27;12.05;;;8.95;;
44197;SDS011;30157;55.512;37.764;2023-09-19T14:21:53;12.45;;;9.93;;
44197;SDS011;30157;55.512;37.764;2023-09-19T14:24:22;11.02;;;9.35;;
44197;SDS011;30157;55.512;37.764;2023-09-19T14:26:48;12.27;;;9.23;;
44197;SDS011;30157;55.512;37.764;2023-09-19T14:29:15;11.90;;;9.80;;
44197;SDS011;30157;55.512;37.764;2023-09-19T14:31:42;13.23;;;9.55;;
44197;SDS011;30157;55.512;37.764;2023-09-19T14:34:08;12.13;;;9.10;;
44197;SDS011;30157;55.512;37.764;2023-09-19T14:36:37;12.18;;;9.60;;
44197;SDS011;30157;55.512;37.764;2023-09-19T14:39:07;13.50;;;9.45;;
44197;SDS011;30157;55.512;37.764;2023-09-19T14:41:35;14.30;;;10.02;;
44197;SDS011;30157;55.512;37.764;2023-09-19T14:44:02;12.85;;;8.93;;
44197;SDS011;30157;55.512;37.764;2023-09-19T14:46:28;12.65;;;9.70;;
44197;SDS011;30157;55.512;37.764;2023-09-19T14:48:54;12.57;;;8.75;;
44197;SDS011;30157;55.512;37.764;2023-09-19T14:51:25;15.70;;;10.68;;
44197;SDS011;30157;55.512;37.764;2023-09-19T14:53:50;13.07;;;9.80;;
44197;SDS011;30157;55.512;37.764;2023-09-19T14:56:17;10.15;;;7.75;;
44197;SDS011;30157;55.512;37.764;2023-09-19T14:58:45;14.27;;;10.23;;
44197;SDS011;30157;55.512;37.764;2023-09-19T15:01:13;14.48;;;8.85;;
44197;SDS011;30157;55.512;37.764;2023-09-19T15:03:40;13.88;;;9.73;;
44197;SDS011;30157;55.512;37.764;2023-09-19T15:06:08;13.30;;;9.15;;
44197;SDS011;30157;55.512;37.764;2023-09-19T15:08:44;13.68;;;9.85;;
44197;SDS011;30157;55.512;37.764;2023-09-19T15:11:14;16.75;;;10.95;;
44197;SDS011;30157;55.512;37.764;2023-09-19T15:13:43;15.05;;;11.02;;
44197;SDS011;30157;55.512;37.764;2023-09-19T15:16:10;14.27;;;10.52;;
44197;SDS011;30157;55.512;37.764;2023-09-19T15:18:43;15.00;;;9.90;;
44197;SDS011;30157;55.512;37.764;2023-09-19T15:21:11;16.65;;;11.10;;
44197;SDS011;30157;55.512;37.764;2023-09-19T15:23:38;15.60;;;10.35;;
44197;SDS011;30157;55.512;37.764;2023-09-19T15:26:05;14.88;;;9.98;;
44197;SDS011;30157;55.512;37.764;2023-09-19T15:28:32;14.65;;;10.85;;
44197;SDS011;30157;55.512;37.764;2023-09-19T15:33:25;19.67;;;13.43;;
44197;SDS011;30157;55.512;37.764;2023-09-19T15:36:00;14.20;;;9.93;;
44197;SDS011;30157;55.512;37.764;2023-09-19T15:38:27;13.02;;;10.18;;
44197;SDS011;30157;55.512;37.764;2023-09-19T15:40:53;12.88;;;9.63;;
44197;SDS011;30157;55.512;37.764;2023-09-19T15:43:20;12.00;;;9.02;;
44197;SDS011;30157;55.512;37.764;2023-09-19T15:45:47;13.88;;;10.07;;
44197;SDS011;30157;55.512;37.764;2023-09-19T15:48:17;15.13;;;10.32;;